Terminal Aerodrome Forecast
Issued by NWS

Home | Current Version | Previous Version | Text Only | Print | Product List | Glossary On
Versions: 1 2 3 4 5 6 7 8 9 10 11 12 13 14 15 16 17 18 19 20 21 22 23 24 25 26 27 28 29 30 31 32 33 34
000
FTUS45 KGJT 230211 AAA
TAFEGE
TAF AMD
KEGE 230211Z 2302/2324 35010KT P6SM FEW100
     FM230300 09004KT P6SM SKC
     FM230600 00000KT P6SM SKC
     FM231900 24008G18KT P6SM VCSH SCT060 BKN120
      AMD LTD TO CLD VIS AND WIND TIL 231300=

USA.gov is the U.S. government's official web portal to all federal, state and local government web resources and services.